Time;durP1;ratioP1;P1;durP2;ratioP2;P2;SDS_P1;SDS_P2;PMS_P1;PMS_P2;Temp;Humidity;BMP_temperature;BMP_pressure;BME280_temperature;BME280_humidity;BME280_pressure;Samples;Min_cycle;Max_cycle;Signal;HPM_P1;HPM_P2
2024/02/10 00:01:17;;;;;;;0.10;0.10;;;10.60;95.40;;;;;;5016480;28;20026;-84
2024/02/10 00:03:45;;;;;;;0.00;0.00;;;10.60;95.20;;;;;;5013310;28;20026;-84
2024/02/10 00:06:15;;;;;;;0.03;0.03;;;10.70;95.10;;;;;;5012181;28;20030;-84
2024/02/10 00:08:42;;;;;;;0.10;0.10;;;10.70;95.10;;;;;;5008233;28;20068;-84
2024/02/10 00:11:08;;;;;;;0.10;0.10;;;10.60;94.90;;;;;;5019192;28;20045;-84
2024/02/10 00:13:35;;;;;;;0.10;0.10;;;10.80;94.80;;;;;;5010831;28;20398;-84
2024/02/10 00:16:01;;;;;;;0.20;0.20;;;10.70;94.80;;;;;;5007624;28;20080;-83
2024/02/10 00:18:29;;;;;;;0.00;0.00;;;10.70;94.80;;;;;;5019166;28;20021;-83
2024/02/10 00:20:55;;;;;;;0.10;0.10;;;10.70;94.80;;;;;;5010404;28;20030;-83
2024/02/10 00:23:24;;;;;;;0.00;0.00;;;10.80;94.70;;;;;;5008693;28;20107;-83
2024/02/10 00:25:52;;;;;;;0.00;0.00;;;10.80;94.50;;;;;;5009943;28;20032;-84
2024/02/10 00:28:19;;;;;;;0.00;0.00;;;10.80;94.40;;;;;;5006928;28;20029;-85
2024/02/10 00:30:44;;;;;;;0.03;0.03;;;10.90;94.20;;;;;;5006730;28;20119;-85
2024/02/10 00:33:10;;;;;;;0.00;0.00;;;10.90;94.10;;;;;;5009971;28;20123;-85
2024/02/10 00:35:35;;;;;;;0.00;0.00;;;10.90;94.10;;;;;;5008690;28;20485;-86
2024/02/10 00:38:01;;;;;;;0.00;0.00;;;10.90;94.20;;;;;;5010579;28;20034;-85
2024/02/10 00:40:27;;;;;;;0.00;0.00;;;10.90;94.40;;;;;;5007957;28;20026;-85
2024/02/10 00:42:53;;;;;;;0.10;0.10;;;10.80;94.40;;;;;;5008982;28;20029;-84
2024/02/10 00:45:19;;;;;;;0.00;0.00;;;10.90;94.40;;;;;;5006022;28;20493;-85
2024/02/10 00:47:45;;;;;;;0.03;0.03;;;10.90;94.50;;;;;;5009628;28;20037;-86
2024/02/10 00:50:16;;;;;;;0.00;0.00;;;11.00;94.50;;;;;;5005612;28;20087;-85
2024/02/10 00:52:49;;;;;;;0.10;0.10;;;10.90;94.80;;;;;;5010646;28;20191;-85
2024/02/10 00:55:16;;;;;;;1.85;1.55;;;10.90;95.40;;;;;;5008768;28;20022;-85
2024/02/10 00:57:42;;;;;;;0.00;0.00;;;10.80;97.00;;;;;;5010402;28;20030;-85
2024/02/10 01:28:01;;;;;;;0.10;0.10;;;10.70;99.90;;;;;;4857797;29;20041;-85
2024/02/10 01:31:01;;;;;;;;;;;;;;;;;;;;;
2024/02/10 02:09:08;;;;;;;;;;;10.40;99.90;;;;;;4723792;30;20052;-86
2024/02/10 02:11:45;;;;;;;0.10;0.10;;;10.40;99.90;;;;;;4776303;29;20021;-86
2024/02/10 02:14:12;;;;;;;;;;;10.20;99.90;;;;;;5012969;28;20136;-86
2024/02/10 02:16:39;;;;;;;0.10;0.10;;;9.70;99.90;;;;;;5038708;28;20442;-85
2024/02/10 02:19:05;;;;;;;0.10;0.10;;;9.50;99.90;;;;;;5051236;28;20052;-86
2024/02/10 02:21:36;;;;;;;0.10;0.10;;;9.60;99.90;;;;;;5031714;28;20107;-86
2024/02/10 02:27:20;;;;;;;0.00;0.00;;;9.70;99.90;;;;;;5047309;28;20043;-87
2024/02/10 02:30:45;;;;;;;;;;;;;;;;;;;;;
2024/02/10 02:33:12;;;;;;;0.10;0.10;;;9.70;99.90;;;;;;5047854;28;20055;-85
2024/02/10 02:35:38;;;;;;;0.10;0.10;;;9.60;99.90;;;;;;5035938;28;20076;-84
2024/02/10 02:38:05;;;;;;;0.10;0.10;;;9.70;99.90;;;;;;5035072;28;20128;-85
2024/02/10 02:40:30;;;;;;;0.25;0.25;;;9.70;99.90;;;;;;5028410;28;20052;-86
2024/02/10 02:42:59;;;;;;;0.05;0.05;;;9.80;99.90;;;;;;5029670;28;20567;-85
2024/02/10 02:45:27;;;;;;;0.10;0.10;;;9.80;99.90;;;;;;5036680;28;20039;-87
2024/02/10 02:48:01;;;;;;;0.10;0.10;;;9.90;99.90;;;;;;5040550;28;20043;-87
2024/02/10 02:50:31;;;;;;;0.10;0.10;;;10.10;99.90;;;;;;5069738;28;20071;-85
2024/02/10 02:53:00;;;;;;;0.10;0.10;;;10.20;99.90;;;;;;5051883;28;20029;-85
2024/02/10 02:55:26;;;;;;;0.10;0.10;;;10.40;99.90;;;;;;5038124;28;20062;-86
2024/02/10 02:57:52;;;;;;;0.00;0.00;;;10.40;99.90;;;;;;5053064;28;20067;-87
2024/02/10 03:00:18;;;;;;;0.00;0.00;;;10.30;99.90;;;;;;5040884;28;20057;-86
2024/02/10 03:02:46;;;;;;;0.05;0.05;;;10.40;99.90;;;;;;5051625;28;20021;-86
2024/02/10 03:05:12;;;;;;;0.10;0.10;;;10.50;99.90;;;;;;5039659;28;20044;-86
2024/02/10 03:07:44;;;;;;;0.10;0.10;;;10.50;99.90;;;;;;5058980;28;20032;-87
2024/02/10 03:10:10;;;;;;;0.10;0.10;;;10.50;99.90;;;;;;5037441;28;20045;-86
2024/02/10 03:12:39;;;;;;;0.10;0.10;;;10.50;99.90;;;;;;5052012;28;20033;-86
2024/02/10 03:15:05;;;;;;;0.10;0.10;;;10.50;99.90;;;;;;5038372;28;20044;-86
2024/02/10 03:17:31;;;;;;;0.08;0.08;;;10.50;99.90;;;;;;5051720;28;20051;-85
2024/02/10 03:19:58;;;;;;;0.10;0.10;;;10.50;99.90;;;;;;5038500;28;20063;-85
2024/02/10 03:22:24;;;;;;;0.10;0.10;;;10.40;99.90;;;;;;5044776;28;20055;-85
2024/02/10 03:24:52;;;;;;;0.00;0.00;;;10.40;99.90;;;;;;5038181;28;20045;-85
2024/02/10 03:27:18;;;;;;;0.10;0.10;;;10.30;99.90;;;;;;5036906;28;20073;-86
2024/02/10 03:29:45;;;;;;;0.10;0.10;;;10.20;99.90;;;;;;5041143;28;20064;-85
2024/02/10 03:32:12;;;;;;;0.05;0.05;;;10.20;99.90;;;;;;5032803;28;20045;-84
2024/02/10 03:34:38;;;;;;;0.00;0.00;;;10.20;99.90;;;;;;5039772;28;20029;-85
2024/02/10 03:37:05;;;;;;;0.10;0.10;;;10.20;99.90;;;;;;5038843;28;20029;-85
2024/02/10 03:39:31;;;;;;;0.10;0.10;;;10.20;99.90;;;;;;5038782;28;20033;-85
2024/02/10 03:41:57;;;;;;;0.10;0.10;;;10.20;99.90;;;;;;5037953;28;20568;-84
2024/02/10 03:44:23;;;;;;;0.10;0.10;;;10.20;99.90;;;;;;5032992;28;20029;-86
2024/02/10 03:46:53;;;;;;;0.10;0.10;;;10.10;99.90;;;;;;5037888;28;20040;-85
2024/02/10 03:49:20;;;;;;;0.00;0.00;;;10.20;99.90;;;;;;5037588;28;20551;-86
2024/02/10 03:51:46;;;;;;;0.00;0.00;;;10.10;99.90;;;;;;5037307;28;20028;-84
2024/02/10 03:54:12;;;;;;;0.00;0.00;;;10.10;99.90;;;;;;5037217;28;20566;-87
2024/02/10 03:56:41;;;;;;;0.00;0.00;;;10.10;99.90;;;;;;5033894;28;20575;-86
2024/02/10 03:59:10;;;;;;;0.00;0.00;;;10.10;99.90;;;;;;5035718;28;20038;-85
2024/02/10 04:01:35;;;;;;;0.00;0.00;;;10.10;99.90;;;;;;5048111;28;20800;-85
2024/02/10 04:04:01;;;;;;;0.30;0.30;;;10.00;99.90;;;;;;5037715;28;20079;-85
2024/02/10 04:06:28;;;;;;;0.13;0.13;;;10.00;99.90;;;;;;5048178;28;20116;-85
2024/02/10 04:08:54;;;;;;;;;;;10.00;99.90;;;;;;5058340;28;20522;-84
2024/02/10 04:11:20;;;;;;;0.10;0.10;;;9.90;99.90;;;;;;5052830;28;19919;-84
2024/02/10 04:13:46;;;;;;;0.00;0.00;;;9.90;99.90;;;;;;5046270;28;20455;-86
2024/02/10 04:16:12;;;;;;;0.20;0.20;;;9.90;99.90;;;;;;5037927;28;20032;-85
2024/02/10 04:18:42;;;;;;;0.10;0.10;;;9.80;99.90;;;;;;5031561;28;20043;-85
2024/02/10 04:21:08;;;;;;;0.10;0.10;;;9.80;99.90;;;;;;5048551;28;20033;-87
2024/02/10 04:23:35;;;;;;;0.10;0.10;;;9.80;99.90;;;;;;5047433;28;20021;-84
2024/02/10 04:26:01;;;;;;;;;;;9.80;99.90;;;;;;5051716;28;20044;-84
2024/02/10 04:28:27;;;;;;;0.10;0.10;;;9.80;99.90;;;;;;5038282;28;19912;-84
2024/02/10 04:30:54;;;;;;;0.10;0.10;;;9.70;99.90;;;;;;5036014;28;20063;-85
2024/02/10 04:33:20;;;;;;;0.00;0.00;;;9.60;99.90;;;;;;5034706;28;20041;-84
2024/02/10 04:35:46;;;;;;;0.00;0.00;;;9.70;99.90;;;;;;5037453;28;20119;-84
2024/02/10 04:38:12;;;;;;;0.00;0.00;;;9.60;99.90;;;;;;5042041;28;20039;-84
2024/02/10 04:40:38;;;;;;;0.00;0.00;;;9.60;99.90;;;;;;5048824;28;20112;-85
2024/02/10 04:43:05;;;;;;;0.00;0.00;;;9.70;99.90;;;;;;5059289;28;20044;-84
2024/02/10 04:45:32;;;;;;;0.03;0.03;;;9.70;99.90;;;;;;5064812;28;20035;-83
2024/02/10 04:48:04;;;;;;;9.63;1.75;;;9.70;99.90;;;;;;5036100;28;20037;-82
2024/02/10 04:50:30;;;;;;;0.10;0.10;;;9.60;99.90;;;;;;5064152;28;20229;-83
2024/02/10 04:52:59;;;;;;;0.10;0.10;;;9.60;99.90;;;;;;5032773;28;20064;-83
2024/02/10 04:55:25;;;;;;;0.10;0.10;;;9.60;99.90;;;;;;5030155;28;20112;-82
2024/02/10 04:57:52;;;;;;;0.10;0.10;;;9.60;99.90;;;;;;5034831;28;20025;-83
2024/02/10 05:00:19;;;;;;;0.00;0.00;;;9.60;99.90;;;;;;5042544;28;20295;-85
2024/02/10 05:02:46;;;;;;;0.10;0.10;;;9.60;99.90;;;;;;5035176;28;20044;-84
2024/02/10 05:05:13;;;;;;;0.10;0.10;;;9.50;99.90;;;;;;5033314;28;20053;-84
2024/02/10 05:07:40;;;;;;;;;;;9.50;99.90;;;;;;5035504;28;20033;-85
2024/02/10 05:10:06;;;;;;;0.00;0.00;;;9.50;99.90;;;;;;5048943;28;19919;-86
2024/02/10 05:12:32;;;;;;;0.10;0.10;;;9.30;99.90;;;;;;5039225;28;20032;-84
2024/02/10 05:14:58;;;;;;;0.00;0.00;;;9.30;99.90;;;;;;5059088;28;20040;-83
2024/02/10 05:17:23;;;;;;;0.00;0.00;;;9.20;99.90;;;;;;5035414;28;20029;-85
2024/02/10 05:19:49;;;;;;;0.00;0.00;;;9.30;99.90;;;;;;5033192;28;20113;-85
2024/02/10 05:22:17;;;;;;;6.43;2.43;;;9.20;99.90;;;;;;5032026;28;20680;-84
2024/02/10 05:24:49;;;;;;;0.10;0.10;;;9.10;99.90;;;;;;5040679;28;20033;-85
2024/02/10 05:27:14;;;;;;;0.10;0.10;;;9.10;99.90;;;;;;5047589;28;20068;-86
2024/02/10 05:29:43;;;;;;;0.00;0.00;;;9.10;99.90;;;;;;5040634;28;20067;-87
2024/02/10 05:32:09;;;;;;;0.10;0.10;;;9.10;99.90;;;;;;5058589;28;20032;-89
2024/02/10 05:34:35;;;;;;;0.10;0.10;;;9.10;99.90;;;;;;5038595;28;20522;-87
2024/02/10 05:37:03;;;;;;;0.10;0.10;;;9.10;99.90;;;;;;5049059;28;20062;-85
2024/02/10 05:39:29;;;;;;;0.10;0.10;;;9.10;99.90;;;;;;5036420;28;20487;-84
2024/02/10 05:41:57;;;;;;;0.10;0.10;;;9.10;99.90;;;;;;5050346;28;20033;-84
2024/02/10 05:44:23;;;;;;;0.00;0.00;;;9.10;99.90;;;;;;5053843;28;20033;-83
2024/02/10 05:46:50;;;;;;;0.10;0.10;;;9.10;99.90;;;;;;5048567;28;20102;-84
2024/02/10 05:49:18;;;;;;;0.10;0.10;;;9.20;99.90;;;;;;5034143;28;20043;-84
2024/02/10 05:51:44;;;;;;;0.10;0.10;;;9.20;99.90;;;;;;5033759;28;20025;-84
2024/02/10 05:54:10;;;;;;;0.10;0.10;;;9.20;99.90;;;;;;5033708;28;20113;-83
2024/02/10 05:56:35;;;;;;;0.10;0.10;;;9.20;99.90;;;;;;5050190;28;20067;-86
2024/02/10 05:59:04;;;;;;;0.10;0.10;;;9.20;99.90;;;;;;5034714;28;20033;-83
2024/02/10 06:01:30;;;;;;;0.10;0.10;;;9.20;99.90;;;;;;5047842;28;20145;-85
2024/02/10 06:03:57;;;;;;;0.10;0.10;;;9.20;99.90;;;;;;5036747;28;20446;-83
2024/02/10 06:06:22;;;;;;;0.00;0.00;;;9.20;99.90;;;;;;5035041;28;20148;-82
2024/02/10 06:08:48;;;;;;;0.00;0.00;;;9.10;99.90;;;;;;5041487;28;20100;-84
2024/02/10 06:11:20;;;;;;;0.10;0.10;;;9.20;99.90;;;;;;5038132;28;20048;-83
2024/02/10 06:13:50;;;;;;;0.10;0.10;;;9.20;99.90;;;;;;5040346;28;20037;-84
2024/02/10 06:16:16;;;;;;;0.10;0.10;;;9.20;99.90;;;;;;5049265;28;20042;-86
2024/02/10 06:18:42;;;;;;;0.10;0.10;;;9.10;99.90;;;;;;5047562;28;20029;-89
2024/02/10 06:21:08;;;;;;;0.10;0.10;;;9.10;99.90;;;;;;5052080;28;20025;-85
2024/02/10 06:23:35;;;;;;;0.10;0.10;;;9.10;99.90;;;;;;5042256;28;20043;-85
2024/02/10 06:26:01;;;;;;;0.10;0.10;;;9.10;99.90;;;;;;5044057;28;20604;-87
2024/02/10 06:28:27;;;;;;;0.10;0.10;;;9.20;99.90;;;;;;5051706;28;20774;-87
2024/02/10 06:30:54;;;;;;;0.10;0.10;;;9.10;99.90;;;;;;5034965;28;20094;-84
2024/02/10 06:33:25;;;;;;;0.10;0.10;;;9.20;99.90;;;;;;5064785;28;20059;-85
2024/02/10 06:35:51;;;;;;;0.10;0.10;;;9.20;99.90;;;;;;5051266;28;20043;-86
2024/02/10 06:38:17;;;;;;;0.10;0.10;;;9.10;99.90;;;;;;5035088;28;20029;-83
2024/02/10 06:40:43;;;;;;;0.10;0.10;;;9.20;99.90;;;;;;5051434;28;20598;-84
2024/02/10 06:43:12;;;;;;;0.10;0.10;;;9.20;99.90;;;;;;5052628;28;20567;-81
2024/02/10 06:45:40;;;;;;;0.13;0.13;;;9.20;99.90;;;;;;5037899;28;20067;-83
2024/02/10 06:48:07;;;;;;;0.20;0.20;;;9.30;99.90;;;;;;5051104;28;20036;-82
2024/02/10 06:50:36;;;;;;;0.10;0.10;;;9.20;99.90;;;;;;5039021;28;20067;-80
2024/02/10 06:53:03;;;;;;;0.10;0.10;;;9.20;99.90;;;;;;5044006;28;20032;-83
2024/02/10 06:55:28;;;;;;;;;;;9.30;99.90;;;;;;5044542;28;20028;-85
2024/02/10 06:57:55;;;;;;;0.10;0.10;;;9.30;99.90;;;;;;5055713;28;19913;-82
2024/02/10 07:00:22;;;;;;;0.10;0.10;;;9.30;99.90;;;;;;5037297;28;20041;-81
2024/02/10 07:02:48;;;;;;;;;;;9.30;99.90;;;;;;5049941;28;20835;-81
2024/02/10 07:05:15;;;;;;;0.10;0.10;;;9.30;99.90;;;;;;5050166;28;19951;-81
2024/02/10 07:07:48;;;;;;;0.00;0.00;;;9.30;99.90;;;;;;5052872;28;20038;-83
2024/02/10 07:10:19;;;;;;;0.10;0.10;;;9.30;99.90;;;;;;5046238;28;20039;-84
2024/02/10 07:12:47;;;;;;;0.10;0.10;;;9.30;99.90;;;;;;5034867;28;20024;-83
2024/02/10 07:15:18;;;;;;;0.00;0.00;;;9.40;99.90;;;;;;5037185;28;20061;-84
2024/02/10 07:17:46;;;;;;;0.10;0.10;;;9.40;99.90;;;;;;5042080;28;20025;-83
2024/02/10 07:20:25;;;;;;;0.10;0.10;;;9.40;99.90;;;;;;5035737;28;20029;-83
2024/02/10 07:22:55;;;;;;;0.10;0.10;;;9.50;99.90;;;;;;5039258;28;20032;-84
2024/02/10 07:25:32;;;;;;;0.00;0.00;;;9.50;99.90;;;;;;5052965;28;20044;-85
2024/02/10 07:28:01;;;;;;;0.10;0.10;;;9.50;99.90;;;;;;5039322;28;20025;-83
2024/02/10 07:30:28;;;;;;;0.10;0.10;;;9.50;99.90;;;;;;5074519;28;20544;-84
2024/02/10 07:32:54;;;;;;;0.10;0.10;;;9.50;99.90;;;;;;5032220;28;20453;-85
2024/02/10 07:35:22;;;;;;;0.10;0.10;;;9.50;99.90;;;;;;5051322;28;20029;-84
2024/02/10 07:37:49;;;;;;;0.08;0.08;;;9.60;99.90;;;;;;5033737;28;20024;-83
2024/02/10 07:40:15;;;;;;;0.10;0.10;;;9.60;99.90;;;;;;5038267;28;20091;-84
2024/02/10 07:42:41;;;;;;;0.00;0.00;;;9.70;99.90;;;;;;5054665;28;20033;-84
2024/02/10 07:45:07;;;;;;;0.10;0.10;;;9.60;99.90;;;;;;5042846;28;20575;-86
2024/02/10 07:47:33;;;;;;;0.08;0.08;;;9.60;99.90;;;;;;5052696;28;20036;-86
2024/02/10 07:49:59;;;;;;;0.00;0.00;;;9.60;99.90;;;;;;5052367;28;20655;-86
2024/02/10 07:52:28;;;;;;;0.60;0.60;;;9.60;99.90;;;;;;5039723;28;20126;-84
2024/02/10 07:54:57;;;;;;;0.10;0.10;;;9.50;99.90;;;;;;5059028;28;20024;-84
2024/02/10 07:57:24;;;;;;;0.10;0.10;;;9.50;99.90;;;;;;5053121;28;20036;-85
2024/02/10 07:59:54;;;;;;;0.10;0.10;;;9.60;99.90;;;;;;5040771;28;20024;-86
2024/02/10 08:02:25;;;;;;;0.30;0.30;;;9.50;99.90;;;;;;5039134;28;20037;-86
2024/02/10 08:04:56;;;;;;;0.00;0.00;;;9.50;99.90;;;;;;5044205;28;20032;-87
2024/02/10 08:07:23;;;;;;;0.10;0.10;;;9.50;99.90;;;;;;5037619;28;20037;-88
2024/02/10 08:09:51;;;;;;;0.03;0.03;;;9.50;99.90;;;;;;5040415;28;20054;-86
2024/02/10 08:12:24;;;;;;;0.10;0.10;;;9.50;99.90;;;;;;5037733;28;20041;-86
2024/02/10 08:14:51;;;;;;;0.10;0.10;;;9.40;99.90;;;;;;5054095;28;20120;-82
2024/02/10 08:17:17;;;;;;;;;;;9.40;99.90;;;;;;5040528;28;20044;-86
2024/02/10 08:19:43;;;;;;;1.90;1.67;;;9.40;99.90;;;;;;5052339;28;19986;-85
2024/02/10 08:22:11;;;;;;;0.03;0.03;;;9.30;99.90;;;;;;5035853;28;20033;-86
2024/02/10 08:24:58;;;;;;;;;;;;;;;;;;;;;
2024/02/10 08:27:57;;;;;;;;;;;;;;;;;;;;;
2024/02/10 08:30:24;;;;;;;0.10;0.10;;;9.20;99.90;;;;;;5050325;28;20399;-85
2024/02/10 08:32:53;;;;;;;;;;;9.20;99.90;;;;;;5039691;28;20025;-86
2024/02/10 08:35:19;;;;;;;4.95;0.65;;;9.20;99.90;;;;;;5053259;28;19945;-85
2024/02/10 08:37:47;;;;;;;0.10;0.10;;;9.20;99.90;;;;;;5049982;28;20037;-87
2024/02/10 08:40:13;;;;;;;0.10;0.10;;;9.20;99.90;;;;;;5030382;28;20031;-88
2024/02/10 08:42:41;;;;;;;0.10;0.10;;;9.10;99.90;;;;;;5040868;28;20770;-87
2024/02/10 08:45:09;;;;;;;0.10;0.10;;;9.20;99.90;;;;;;5030332;28;20063;-86
2024/02/10 08:47:34;;;;;;;0.10;0.10;;;9.10;99.90;;;;;;5064927;28;20048;-83
2024/02/10 08:50:07;;;;;;;0.10;0.10;;;9.30;99.90;;;;;;5047194;28;20071;-85
2024/02/10 08:52:33;;;;;;;0.10;0.10;;;9.30;99.90;;;;;;5059684;28;20110;-83
2024/02/10 08:54:59;;;;;;;0.28;0.28;;;9.40;99.90;;;;;;5044809;28;20037;-83
2024/02/10 08:57:25;;;;;;;0.10;0.10;;;9.40;99.90;;;;;;5044647;28;20029;-82
2024/02/10 08:59:51;;;;;;;0.30;0.17;;;9.40;99.90;;;;;;5037355;28;20025;-81
2024/02/10 09:02:17;;;;;;;0.00;0.00;;;9.50;99.90;;;;;;5051737;28;20047;-81
2024/02/10 09:04:44;;;;;;;0.10;0.10;;;9.40;99.90;;;;;;5044302;28;20028;-81
2024/02/10 09:07:09;;;;;;;0.10;0.10;;;9.50;99.90;;;;;;5047851;28;20904;-81
2024/02/10 09:09:35;;;;;;;0.10;0.10;;;9.50;99.90;;;;;;5035535;28;20032;-80
2024/02/10 09:12:01;;;;;;;0.10;0.10;;;9.40;99.90;;;;;;5031454;28;20053;-80
2024/02/10 09:14:27;;;;;;;0.20;0.20;;;9.30;99.90;;;;;;5045649;28;20017;-81
2024/02/10 09:16:53;;;;;;;1.23;1.20;;;9.20;99.90;;;;;;5046292;28;20029;-82
2024/02/10 09:19:19;;;;;;;0.10;0.10;;;9.30;99.90;;;;;;5048419;28;20033;-80
2024/02/10 09:21:54;;;;;;;0.10;0.10;;;9.20;99.90;;;;;;5041140;28;20801;-83
2024/02/10 09:24:24;;;;;;;2.03;1.85;;;9.00;99.90;;;;;;5044417;28;20055;-86
2024/02/10 09:26:51;;;;;;;0.00;0.00;;;8.60;99.90;;;;;;5042661;28;20021;-81
2024/02/10 09:29:18;;;;;;;0.10;0.10;;;8.20;99.90;;;;;;5045738;28;20584;-82
2024/02/10 09:31:45;;;;;;;0.10;0.10;;;8.30;99.90;;;;;;5042496;28;20032;-83
2024/02/10 09:34:12;;;;;;;0.05;0.05;;;8.20;99.90;;;;;;5038758;28;20071;-81
2024/02/10 09:36:42;;;;;;;0.10;0.10;;;8.20;99.90;;;;;;5046496;28;20522;-81
2024/02/10 09:39:08;;;;;;;0.10;0.10;;;8.10;99.90;;;;;;5034635;28;20044;-83
2024/02/10 09:41:34;;;;;;;0.13;0.13;;;8.00;99.90;;;;;;5034497;28;20503;-83
2024/02/10 09:43:59;;;;;;;1.60;1.45;;;7.90;99.90;;;;;;5049663;28;20098;-82
2024/02/10 09:46:25;;;;;;;0.10;0.10;;;7.70;99.90;;;;;;5041914;28;20124;-83
2024/02/10 09:48:51;;;;;;;0.10;0.10;;;8.10;99.90;;;;;;5034372;28;20039;-82
2024/02/10 09:51:18;;;;;;;0.00;0.00;;;7.90;99.90;;;;;;5034666;28;20106;-82
2024/02/10 09:53:44;;;;;;;;;;;7.80;99.90;;;;;;5032505;28;20032;-82
2024/02/10 09:56:15;;;;;;;0.10;0.10;;;7.60;99.90;;;;;;5049152;28;20736;-82
2024/02/10 09:58:55;;;;;;;0.10;0.10;;;7.50;99.90;;;;;;5061284;28;20029;-82
2024/02/10 10:01:21;;;;;;;0.10;0.10;;;7.40;99.90;;;;;;5031411;28;20028;-83
2024/02/10 10:03:46;;;;;;;0.10;0.10;;;7.40;99.90;;;;;;5035699;28;20024;-82
2024/02/10 10:06:12;;;;;;;0.10;0.10;;;7.10;99.90;;;;;;5047034;28;20068;-84
2024/02/10 10:08:39;;;;;;;0.10;0.10;;;7.20;99.90;;;;;;5034202;28;20033;-81
2024/02/10 10:11:11;;;;;;;0.10;0.10;;;6.80;99.90;;;;;;5043158;28;20068;-83
2024/02/10 10:13:38;;;;;;;0.10;0.10;;;7.00;99.90;;;;;;5029791;28;20602;-81
2024/02/10 10:16:07;;;;;;;0.10;0.10;;;6.90;99.90;;;;;;5048376;28;20693;-81
2024/02/10 10:18:35;;;;;;;1.85;0.50;;;6.70;99.90;;;;;;5042687;28;20029;-82
2024/02/10 10:21:04;;;;;;;0.10;0.10;;;6.80;99.90;;;;;;5026492;28;20028;-83
2024/02/10 10:23:31;;;;;;;0.10;0.10;;;6.70;99.90;;;;;;5034741;28;20035;-83
2024/02/10 10:25:57;;;;;;;0.10;0.10;;;6.90;99.90;;;;;;5034310;28;20032;-81
2024/02/10 10:28:23;;;;;;;0.10;0.10;;;6.80;99.90;;;;;;5049434;28;20046;-80
2024/02/10 10:30:49;;;;;;;0.10;0.10;;;6.90;99.90;;;;;;5043110;28;20031;-80
2024/02/10 10:33:20;;;;;;;0.10;0.10;;;6.70;99.90;;;;;;5049657;28;20096;-79
2024/02/10 10:35:46;;;;;;;0.30;0.30;;;6.80;99.90;;;;;;5051796;28;20044;-82
2024/02/10 10:38:12;;;;;;;0.10;0.10;;;6.60;99.90;;;;;;5056120;28;20690;-81
2024/02/10 10:40:38;;;;;;;0.10;0.10;;;6.70;99.90;;;;;;5037130;28;20025;-80
2024/02/10 10:43:11;;;;;;;0.10;0.10;;;7.00;99.90;;;;;;5050961;28;20029;-79
2024/02/10 10:45:38;;;;;;;0.10;0.10;;;6.70;99.90;;;;;;5048605;28;20025;-78
2024/02/10 10:48:07;;;;;;;0.10;0.10;;;6.30;99.90;;;;;;5035420;28;20086;-79
2024/02/10 10:50:34;;;;;;;0.40;0.40;;;6.50;99.90;;;;;;5049983;28;20053;-80
2024/02/10 10:53:06;;;;;;;;;;;6.60;99.90;;;;;;5034616;28;20114;-80
2024/02/10 10:55:44;;;;;;;0.10;0.10;;;6.30;99.90;;;;;;5060355;28;19927;-81
2024/02/10 10:58:16;;;;;;;0.10;0.10;;;6.60;99.90;;;;;;5047421;28;20066;-79
2024/02/10 11:00:45;;;;;;;0.10;0.10;;;6.80;99.90;;;;;;5044954;28;20025;-79
2024/02/10 11:03:14;;;;;;;0.10;0.10;;;6.90;99.90;;;;;;5034616;28;20558;-78
2024/02/10 11:05:42;;;;;;;0.10;0.10;;;6.90;99.90;;;;;;5035915;28;20036;-80
2024/02/10 11:08:13;;;;;;;0.10;0.10;;;6.90;99.90;;;;;;5038038;28;20048;-81
2024/02/10 11:10:48;;;;;;;0.20;0.20;;;6.70;99.90;;;;;;5031246;28;20036;-79
2024/02/10 11:13:22;;;;;;;0.10;0.10;;;7.10;99.90;;;;;;5034926;28;20033;-79
2024/02/10 11:16:12;;;;;;;0.10;0.10;;;6.90;99.90;;;;;;5031940;28;20028;-80
2024/02/10 11:18:44;;;;;;;0.10;0.10;;;6.70;99.90;;;;;;5041065;28;20486;-81
2024/02/10 11:21:25;;;;;;;0.10;0.10;;;6.70;99.90;;;;;;5052593;28;20067;-82
2024/02/10 11:24:01;;;;;;;0.10;0.10;;;6.90;99.90;;;;;;5038960;28;20120;-81
2024/02/10 11:26:28;;;;;;;2.63;2.45;;;7.40;99.90;;;;;;5026581;28;20421;-81
2024/02/10 11:29:05;;;;;;;0.10;0.10;;;6.70;99.90;;;;;;5050147;28;20120;-79
2024/02/10 11:31:41;;;;;;;0.10;0.10;;;6.80;99.90;;;;;;5045025;28;20029;-80
2024/02/10 11:34:16;;;;;;;0.10;0.10;;;7.40;99.90;;;;;;5046347;28;20040;-81
2024/02/10 11:36:53;;;;;;;0.10;0.10;;;7.10;99.90;;;;;;5055900;28;20040;-80
2024/02/10 11:39:20;;;;;;;0.10;0.10;;;7.30;99.90;;;;;;5050314;28;20024;-80
2024/02/10 11:41:48;;;;;;;0.10;0.10;;;7.40;99.90;;;;;;5031866;28;20033;-80
2024/02/10 11:44:16;;;;;;;0.10;0.10;;;7.40;99.90;;;;;;5041738;28;20049;-81
2024/02/10 11:46:41;;;;;;;0.10;0.10;;;7.20;99.90;;;;;;5035930;28;20048;-79
2024/02/10 11:49:11;;;;;;;0.10;0.10;;;7.40;99.90;;;;;;5048426;28;20033;-80
2024/02/10 11:51:37;;;;;;;0.10;0.10;;;7.30;99.90;;;;;;5040310;28;20491;-80
2024/02/10 11:54:03;;;;;;;0.10;0.10;;;7.20;99.90;;;;;;5038079;28;20968;-79
2024/02/10 11:56:33;;;;;;;0.10;0.10;;;7.10;99.90;;;;;;5051089;28;20107;-79
2024/02/10 11:59:00;;;;;;;0.10;0.10;;;7.00;99.90;;;;;;5049686;28;20184;-79
2024/02/10 12:01:32;;;;;;;0.10;0.10;;;7.20;99.90;;;;;;5037336;28;20030;-78
2024/02/10 12:04:05;;;;;;;0.10;0.10;;;7.00;99.90;;;;;;5054396;28;20037;-78
2024/02/10 12:06:31;;;;;;;0.10;0.10;;;7.00;99.90;;;;;;5060852;28;20039;-78
2024/02/10 12:08:59;;;;;;;0.10;0.10;;;7.10;99.90;;;;;;5065053;28;20032;-78
2024/02/10 12:11:26;;;;;;;0.10;0.10;;;7.40;99.90;;;;;;5061554;28;20263;-78
2024/02/10 12:13:56;;;;;;;0.10;0.10;;;7.30;99.90;;;;;;5064450;28;20510;-78
2024/02/10 12:16:23;;;;;;;0.10;0.10;;;7.20;99.90;;;;;;5041539;28;20107;-78
2024/02/10 12:18:49;;;;;;;0.00;0.00;;;7.10;99.90;;;;;;5040351;28;20032;-78
2024/02/10 12:21:19;;;;;;;0.10;0.10;;;7.10;99.90;;;;;;5058314;28;20029;-78
2024/02/10 12:23:48;;;;;;;0.10;0.10;;;7.00;99.90;;;;;;5045447;28;20054;-79
2024/02/10 12:26:15;;;;;;;0.10;0.10;;;7.30;99.90;;;;;;5057463;28;20067;-78
2024/02/10 12:28:41;;;;;;;0.10;0.10;;;7.50;99.90;;;;;;5040752;28;20032;-79
2024/02/10 12:31:07;;;;;;;0.20;0.20;;;7.30;99.90;;;;;;5052950;28;20040;-78
2024/02/10 12:33:34;;;;;;;0.10;0.10;;;7.10;99.90;;;;;;5054961;28;20029;-77
2024/02/10 12:36:00;;;;;;;0.10;0.10;;;7.10;99.90;;;;;;5051510;28;20089;-78
2024/02/10 12:38:26;;;;;;;0.10;0.10;;;7.50;99.90;;;;;;5030084;28;20456;-78
2024/02/10 12:40:55;;;;;;;0.10;0.10;;;7.80;99.90;;;;;;5051189;28;20115;-78
2024/02/10 12:43:23;;;;;;;0.10;0.10;;;7.20;99.90;;;;;;5055347;28;20697;-78
2024/02/10 12:45:52;;;;;;;0.10;0.10;;;7.30;99.90;;;;;;5063689;28;20025;-78
2024/02/10 12:48:18;;;;;;;0.22;0.22;;;7.00;99.90;;;;;;5055245;28;20052;-78
2024/02/10 12:50:47;;;;;;;0.10;0.10;;;7.10;99.90;;;;;;5051355;28;20087;-79
2024/02/10 12:53:13;;;;;;;0.10;0.10;;;7.10;99.90;;;;;;5054362;28;20031;-79
2024/02/10 12:55:44;;;;;;;0.10;0.10;;;7.20;99.90;;;;;;5032580;28;20029;-79
2024/02/10 12:58:10;;;;;;;0.10;0.10;;;7.20;99.90;;;;;;5053603;28;20074;-79
2024/02/10 13:00:36;;;;;;;0.10;0.10;;;7.10;99.90;;;;;;5050388;28;20868;-79
2024/02/10 13:03:02;;;;;;;0.10;0.10;;;7.10;99.90;;;;;;5041639;28;20759;-78
2024/02/10 13:05:28;;;;;;;0.10;0.10;;;7.10;99.90;;;;;;5041044;28;20127;-80
2024/02/10 13:07:55;;;;;;;0.10;0.10;;;7.20;99.90;;;;;;5060361;28;20131;-79
2024/02/10 13:10:21;;;;;;;0.40;0.40;;;7.30;99.90;;;;;;5057771;28;20068;-79
2024/02/10 13:12:51;;;;;;;0.10;0.10;;;7.50;99.90;;;;;;5061643;28;20857;-79
2024/02/10 13:15:17;;;;;;;0.10;0.10;;;7.50;99.90;;;;;;5074051;28;20044;-79
2024/02/10 13:17:47;;;;;;;0.10;0.10;;;7.60;99.90;;;;;;5037067;28;20025;-79
2024/02/10 13:20:22;;;;;;;0.10;0.10;;;7.60;99.90;;;;;;5038269;28;20039;-79
2024/02/10 13:22:48;;;;;;;0.10;0.10;;;7.70;99.90;;;;;;5042968;28;20032;-79
2024/02/10 13:25:15;;;;;;;0.10;0.10;;;7.60;99.90;;;;;;5059377;28;20024;-80
2024/02/10 13:27:43;;;;;;;0.35;0.35;;;7.70;99.90;;;;;;5059533;28;20060;-79
2024/02/10 13:30:09;;;;;;;0.10;0.10;;;7.60;99.90;;;;;;5028862;28;20060;-79
2024/02/10 13:32:40;;;;;;;0.10;0.10;;;7.70;99.90;;;;;;5047217;28;20602;-79
2024/02/10 13:35:06;;;;;;;0.10;0.10;;;7.90;99.90;;;;;;5047451;28;20575;-79
2024/02/10 14:12:48;;;;;;;0.10;0.10;;;8.00;99.90;;;;;;5046535;28;20032;-79
2024/02/10 14:15:16;;;;;;;0.10;0.10;;;8.10;99.90;;;;;;5057543;28;20112;-80
2024/02/10 14:18:03;;;;;;;0.10;0.10;;;8.20;99.90;;;;;;5054679;28;20029;-80
2024/02/10 14:20:33;;;;;;;0.10;0.10;;;8.60;99.90;;;;;;5056670;28;20668;-79
2024/02/10 14:23:00;;;;;;;0.10;0.10;;;8.40;99.90;;;;;;5058074;28;20492;-78
2024/02/10 14:25:27;;;;;;;2.60;2.20;;;8.40;99.90;;;;;;5042080;28;20029;-79
2024/02/10 14:27:58;;;;;;;;;;;8.50;99.90;;;;;;5057777;28;20036;-79
2024/02/10 14:30:47;;;;;;;0.10;0.10;;;8.60;99.90;;;;;;5047505;28;19935;-80
2024/02/10 14:33:15;;;;;;;0.10;0.10;;;8.70;99.90;;;;;;5045942;28;20064;-79
2024/02/10 14:36:02;;;;;;;0.10;0.10;;;8.70;99.90;;;;;;5047995;28;20541;-79
2024/02/10 14:38:30;;;;;;;0.10;0.10;;;8.70;99.90;;;;;;5038074;28;20116;-80
2024/02/10 14:40:58;;;;;;;0.10;0.10;;;8.80;99.90;;;;;;5053042;28;20029;-81
2024/02/10 14:43:25;;;;;;;0.10;0.10;;;8.70;99.90;;;;;;5060740;28;20411;-80
2024/02/10 14:45:52;;;;;;;0.10;0.10;;;8.50;99.90;;;;;;5037789;28;20025;-80
2024/02/10 14:48:18;;;;;;;0.05;0.05;;;8.50;99.90;;;;;;5052468;28;20044;-80
2024/02/10 14:50:44;;;;;;;0.22;0.22;;;8.60;99.90;;;;;;5061745;28;20049;-80